createdAt,value
2019-03-03T00:00:59.310Z,7.27
2019-03-03T00:06:03.838Z,10.30
2019-03-03T00:08:33.096Z,9.53
2019-03-03T00:11:02.363Z,10.70
2019-03-03T00:13:50.558Z,8.70
2019-03-03T00:16:59.278Z,12.73
2019-03-03T00:19:28.849Z,6.40
2019-03-03T00:21:58.322Z,6.43
2019-03-03T00:24:27.572Z,8.93
2019-03-03T00:26:57.116Z,5.53
2019-03-03T00:29:26.367Z,7.50
2019-03-03T00:31:55.583Z,7.47
2019-03-03T00:34:24.809Z,6.93
2019-03-03T00:37:12.952Z,8.30
2019-03-03T00:40:01.124Z,7.17
2019-03-03T00:42:49.816Z,12.90
2019-03-03T00:48:34.246Z,5.47
2019-03-03T00:51:14.965Z,8.70
2019-03-03T00:54:03.177Z,6.80
2019-03-03T00:56:37.245Z,10.33
2019-03-03T00:59:25.435Z,7.73
2019-03-03T01:02:13.847Z,10.00
2019-03-03T01:05:01.995Z,7.80
2019-03-03T01:07:50.449Z,6.47
2019-03-03T01:10:38.588Z,9.87
2019-03-03T01:13:27.039Z,6.33
2019-03-03T01:16:15.219Z,9.13
2019-03-03T01:19:24.469Z,7.47
2019-03-03T01:22:13.154Z,8.70
2019-03-03T01:25:01.288Z,6.90
2019-03-03T01:27:30.475Z,12.63
2019-03-03T01:29:59.790Z,7.53
2019-03-03T01:32:29.073Z,6.30
2019-03-03T01:34:58.607Z,10.87
2019-03-03T01:37:28.085Z,9.63
2019-03-03T01:39:57.342Z,10.13
2019-03-03T01:42:26.555Z,10.93
2019-03-03T01:44:56.227Z,7.90
2019-03-03T01:47:25.505Z,11.13
2019-03-03T01:49:54.777Z,10.07
2019-03-03T01:52:24.014Z,12.10
2019-03-03T01:54:53.225Z,7.30
2019-03-03T01:57:22.450Z,9.50
2019-03-03T01:59:51.733Z,9.23
2019-03-03T02:02:20.943Z,12.40
2019-03-03T02:04:50.452Z,12.60
2019-03-03T02:07:19.685Z,8.87
2019-03-03T02:09:49.047Z,9.27
2019-03-03T02:12:18.265Z,10.33
2019-03-03T02:14:47.501Z,9.70
2019-03-03T02:17:16.770Z,5.47
2019-03-03T02:19:45.974Z,8.73
2019-03-03T02:22:15.480Z,8.20
2019-03-03T02:24:44.703Z,10.23
2019-03-03T02:27:13.996Z,8.77
2019-03-03T02:29:43.223Z,7.73
2019-03-03T02:32:12.502Z,9.63
2019-03-03T02:34:41.741Z,10.83
2019-03-03T02:37:10.998Z,8.23
2019-03-03T02:39:40.222Z,8.20
2019-03-03T02:42:09.452Z,5.97
2019-03-03T02:44:38.779Z,11.93
2019-03-03T02:47:08.086Z,10.83
2019-03-03T02:49:37.294Z,9.17
2019-03-03T02:52:06.548Z,10.67
2019-03-03T02:54:35.801Z,12.10
2019-03-03T02:57:05.074Z,7.00
2019-03-03T02:59:34.302Z,7.80
2019-03-03T03:04:43.121Z,8.57
2019-03-03T03:07:20.199Z,10.23
2019-03-03T03:10:08.612Z,9.73
2019-03-03T03:12:56.754Z,8.40
2019-03-03T03:15:40.484Z,12.10
2019-03-03T03:18:27.875Z,14.03
2019-03-03T03:21:16.310Z,9.43
2019-03-03T03:24:04.433Z,10.78
2019-03-03T03:26:52.616Z,9.83
2019-03-03T03:29:40.786Z,9.07
2019-03-03T03:32:28.972Z,10.43
2019-03-03T03:35:17.099Z,10.10
2019-03-03T03:38:05.557Z,8.93
2019-03-03T03:43:47.445Z,7.97
2019-03-03T03:46:35.601Z,9.47
2019-03-03T03:49:23.774Z,9.33
2019-03-03T03:52:11.962Z,12.30
2019-03-03T03:55:00.233Z,13.37
2019-03-03T03:57:49.990Z,7.87
2019-03-03T04:00:38.118Z,7.67
2019-03-03T04:03:26.276Z,7.13
2019-03-03T04:06:03.123Z,9.10
2019-03-03T04:08:38.037Z,13.77
2019-03-03T04:11:15.474Z,9.43
2019-03-03T04:13:57.172Z,9.67
2019-03-03T04:16:45.333Z,9.70
2019-03-03T04:19:28.900Z,13.33
2019-03-03T04:22:17.100Z,9.70
2019-03-03T04:25:05.233Z,9.17
2019-03-03T04:27:53.360Z,7.27
2019-03-03T04:30:41.489Z,11.40
2019-03-03T04:33:29.734Z,11.87
2019-03-03T04:36:14.367Z,10.73
2019-03-03T04:39:02.514Z,12.13
2019-03-03T04:41:50.678Z,9.20
2019-03-03T04:44:38.798Z,16.13
2019-03-03T04:47:26.938Z,9.77
2019-03-03T04:50:15.106Z,10.13
2019-03-03T04:53:03.289Z,9.03
2019-03-03T04:55:51.711Z,9.63
2019-03-03T04:58:39.856Z,11.57
2019-03-03T05:01:27.994Z,12.13
2019-03-03T05:04:16.134Z,11.70
2019-03-03T05:07:04.280Z,9.03
2019-03-03T05:09:52.446Z,11.93
2019-03-03T05:12:42.417Z,11.00
2019-03-03T05:15:49.625Z,11.07
2019-03-03T05:18:38.037Z,10.07
2019-03-03T05:21:07.573Z,15.13
2019-03-03T05:23:36.848Z,9.43
2019-03-03T05:26:06.348Z,8.97
2019-03-03T05:28:35.934Z,8.70
2019-03-03T05:31:05.173Z,10.23
2019-03-03T05:33:34.397Z,7.83
2019-03-03T05:36:03.632Z,14.70
2019-03-03T05:38:32.917Z,8.60
2019-03-03T05:41:02.121Z,10.60
2019-03-03T05:43:31.714Z,9.67
2019-03-03T05:46:00.932Z,11.30
2019-03-03T05:48:30.178Z,10.73
2019-03-03T05:50:59.766Z,13.80
2019-03-03T05:53:29.019Z,11.23
2019-03-03T05:55:58.266Z,6.87
2019-03-03T05:58:27.500Z,12.27
2019-03-03T06:00:56.718Z,10.23
2019-03-03T06:03:25.979Z,9.27
2019-03-03T06:05:55.238Z,9.33
2019-03-03T06:08:25.200Z,8.93
2019-03-03T06:10:54.414Z,6.90
2019-03-03T06:13:23.722Z,11.57
2019-03-03T06:15:52.946Z,11.40
2019-03-03T06:18:22.492Z,7.97
2019-03-03T06:20:52.200Z,12.93
2019-03-03T06:23:21.483Z,10.70
2019-03-03T06:25:50.831Z,8.57
2019-03-03T06:28:20.139Z,13.87
2019-03-03T06:30:49.381Z,8.03
2019-03-03T06:33:18.681Z,11.43
2019-03-03T06:35:48.204Z,12.10
2019-03-03T06:38:17.407Z,7.70
2019-03-03T06:40:46.685Z,13.13
2019-03-03T06:43:15.937Z,15.47
2019-03-03T06:45:45.215Z,12.33
2019-03-03T06:48:14.535Z,9.37
2019-03-03T06:50:43.770Z,12.70
2019-03-03T06:53:13.064Z,8.80
2019-03-03T06:55:42.301Z,5.80
2019-03-03T06:58:11.565Z,9.57
2019-03-03T07:00:41.348Z,8.70
2019-03-03T07:03:10.600Z,8.13
2019-03-03T07:05:39.852Z,11.33
2019-03-03T07:08:09.102Z,9.40
2019-03-03T07:10:38.624Z,7.77
2019-03-03T07:13:07.907Z,8.00
2019-03-03T07:15:37.541Z,11.13
2019-03-03T07:18:06.786Z,7.47
2019-03-03T07:20:36.059Z,6.77
2019-03-03T07:23:05.796Z,5.73
2019-03-03T07:25:35.023Z,9.33
2019-03-03T07:28:04.266Z,8.23
2019-03-03T07:30:33.520Z,9.30
2019-03-03T07:33:21.704Z,8.47
2019-03-03T07:38:39.950Z,8.80
2019-03-03T07:41:09.183Z,11.90
2019-03-03T07:43:38.423Z,12.87
2019-03-03T07:46:07.805Z,3.57
2019-03-03T07:48:37.329Z,6.10
2019-03-03T07:51:06.575Z,6.37
2019-03-03T07:53:35.816Z,6.37
2019-03-03T07:56:05.062Z,7.00
2019-03-03T07:58:41.654Z,7.50
2019-03-03T08:01:10.871Z,4.70
2019-03-03T08:03:40.135Z,4.50
2019-03-03T08:06:09.359Z,4.10
2019-03-03T08:08:38.909Z,5.43
2019-03-03T08:13:56.924Z,7.37
2019-03-03T08:16:26.471Z,4.57
2019-03-03T08:18:55.836Z,3.77
2019-03-03T08:21:25.051Z,3.87
2019-03-03T08:23:56.583Z,3.57
2019-03-03T08:26:25.881Z,2.43
2019-03-03T08:28:56.162Z,3.60
2019-03-03T08:31:25.809Z,2.77
2019-03-03T08:33:55.086Z,3.20
2019-03-03T08:36:24.298Z,6.90
2019-03-03T08:38:53.537Z,1.50
2019-03-03T08:41:23.020Z,3.27
2019-03-03T08:44:05.707Z,2.17
2019-03-03T08:46:53.923Z,3.27
2019-03-03T08:49:31.471Z,3.83
2019-03-03T08:52:19.945Z,3.97
2019-03-03T08:55:03.456Z,2.97
2019-03-03T08:58:07.578Z,2.50
2019-03-03T09:00:55.835Z,3.27
2019-03-03T09:03:33.326Z,3.07
2019-03-03T09:06:21.504Z,4.10
2019-03-03T09:09:09.990Z,3.47
2019-03-03T09:11:58.175Z,4.10
2019-03-03T09:14:46.329Z,2.37
2019-03-03T09:17:34.876Z,4.53
2019-03-03T09:20:23.427Z,5.97
2019-03-03T09:23:11.559Z,3.27
2019-03-03T09:25:59.758Z,3.30
2019-03-03T09:28:47.866Z,6.00
2019-03-03T09:31:36.038Z,3.40
2019-03-03T09:34:24.549Z,4.67
2019-03-03T09:37:12.734Z,4.20
2019-03-03T09:40:09.079Z,2.13
2019-03-03T09:42:50.824Z,3.13
2019-03-03T09:45:38.967Z,6.50
2019-03-03T09:48:27.511Z,1.40
2019-03-03T09:51:16.148Z,3.57
2019-03-03T09:53:53.726Z,2.83
2019-03-03T09:56:41.894Z,4.00
2019-03-03T09:59:30.209Z,1.97
2019-03-03T10:02:18.376Z,4.23
2019-03-03T10:05:06.492Z,3.07
2019-03-03T10:07:55.017Z,1.77
2019-03-03T10:10:43.174Z,1.57
2019-03-03T10:13:31.396Z,2.07
2019-03-03T10:16:19.870Z,1.13
2019-03-03T10:19:08.611Z,1.70
2019-03-03T10:21:57.152Z,1.43
2019-03-03T10:24:45.655Z,1.43
2019-03-03T10:27:34.072Z,1.57
2019-03-03T10:30:22.240Z,3.50
2019-03-03T10:33:10.471Z,1.33
2019-03-03T10:35:58.614Z,1.72
2019-03-03T10:38:46.861Z,3.13
2019-03-03T10:44:42.137Z,0.83
2019-03-03T10:47:30.315Z,1.03
2019-03-03T10:50:18.558Z,1.40
2019-03-03T10:52:54.283Z,1.93
2019-03-03T10:55:42.445Z,2.40
2019-03-03T10:58:30.595Z,1.30
2019-03-03T11:01:18.746Z,1.90
2019-03-03T11:04:07.160Z,1.47
2019-03-03T11:06:55.255Z,2.23
2019-03-03T11:09:40.716Z,1.60
2019-03-03T11:12:29.290Z,1.97
2019-03-03T11:15:18.789Z,1.50
2019-03-03T11:18:08.125Z,1.27
2019-03-03T11:20:56.353Z,2.20
2019-03-03T11:23:44.492Z,3.40
2019-03-03T11:26:32.831Z,1.60
2019-03-03T11:29:08.452Z,1.67
2019-03-03T11:31:56.547Z,2.47
2019-03-03T11:34:44.723Z,3.17
2019-03-03T11:37:32.838Z,3.00
2019-03-03T11:40:21.829Z,1.47
2019-03-03T11:43:09.949Z,1.43
2019-03-03T11:45:58.096Z,1.53
2019-03-03T11:48:46.534Z,1.93
2019-03-03T11:51:35.415Z,2.67
2019-03-03T11:54:10.369Z,1.87
2019-03-03T11:56:58.495Z,1.60
2019-03-03T11:59:43.504Z,2.50
2019-03-03T12:02:32.728Z,2.57
2019-03-03T12:05:10.311Z,1.83
2019-03-03T12:07:58.423Z,1.70
2019-03-03T12:10:46.589Z,0.97
2019-03-03T12:13:34.966Z,1.70
2019-03-03T12:19:19.356Z,1.37
2019-03-03T12:22:07.813Z,0.90
2019-03-03T12:24:55.933Z,3.20
2019-03-03T12:27:44.206Z,1.93
2019-03-03T12:30:33.113Z,3.23
2019-03-03T12:33:08.699Z,2.27
2019-03-03T12:35:56.825Z,3.67
2019-03-03T12:38:45.272Z,1.80
2019-03-03T12:41:33.461Z,2.57
2019-03-03T12:44:21.578Z,2.53
2019-03-03T12:47:09.769Z,3.13
2019-03-03T12:49:57.889Z,3.57
2019-03-03T12:52:37.441Z,3.07
2019-03-03T12:55:25.624Z,4.00
2019-03-03T12:58:13.754Z,3.70
2019-03-03T13:00:50.866Z,4.90
2019-03-03T13:03:38.990Z,3.17
2019-03-03T13:06:30.443Z,2.20
2019-03-03T13:09:19.154Z,5.17
2019-03-03T13:15:02.293Z,2.60
2019-03-03T13:17:50.430Z,2.63
2019-03-03T13:20:38.647Z,3.80
2019-03-03T13:23:26.794Z,1.50
2019-03-03T13:26:06.697Z,1.43
2019-03-03T13:28:55.565Z,2.33
2019-03-03T13:31:43.758Z,1.53
2019-03-03T13:34:32.152Z,1.57
2019-03-03T13:37:39.365Z,2.43
2019-03-03T13:40:28.484Z,1.30
2019-03-03T13:42:56.728Z,1.87
2019-03-03T13:46:05.711Z,2.33
2019-03-03T13:48:34.942Z,2.70
2019-03-03T13:51:04.311Z,1.73
2019-03-03T13:53:33.587Z,2.17
2019-03-03T13:56:02.840Z,2.33
2019-03-03T13:58:32.397Z,2.90
2019-03-03T14:01:01.840Z,3.13
2019-03-03T14:03:31.091Z,2.83
2019-03-03T14:06:00.331Z,3.65
2019-03-03T14:08:29.639Z,2.10
2019-03-03T14:10:58.896Z,8.13
2019-03-03T14:13:28.127Z,4.80
2019-03-03T14:15:57.360Z,5.23
2019-03-03T14:18:26.602Z,3.13
2019-03-03T14:20:56.537Z,3.63
2019-03-03T14:23:25.788Z,4.57
2019-03-03T14:25:55.054Z,3.00
2019-03-03T14:28:24.319Z,6.67
2019-03-03T14:30:54.838Z,6.47
2019-03-03T14:33:24.183Z,3.77
2019-03-03T14:35:53.417Z,5.60
2019-03-03T14:38:42.068Z,4.70
2019-03-03T14:41:30.366Z,4.70
2019-03-03T14:43:59.621Z,4.63
2019-03-03T14:46:30.275Z,4.20
2019-03-03T14:48:59.616Z,6.30
2019-03-03T14:51:28.837Z,4.70
2019-03-03T15:00:34.900Z,5.47
2019-03-03T15:03:06.555Z,7.27
2019-03-03T15:08:44.541Z,5.40
2019-03-03T15:14:24.671Z,5.80
2019-03-03T15:17:13.579Z,7.00
2019-03-03T15:19:42.835Z,4.43
2019-03-03T15:22:12.502Z,5.07
2019-03-03T15:24:42.053Z,5.23
2019-03-03T15:27:30.927Z,7.33
2019-03-03T15:30:00.278Z,4.53
2019-03-03T15:32:29.585Z,6.60
2019-03-03T15:34:59.230Z,6.37
2019-03-03T15:37:28.571Z,7.33
2019-03-03T15:39:58.394Z,8.07
2019-03-03T15:42:27.914Z,10.23
2019-03-03T15:44:57.224Z,8.80
2019-03-03T15:47:26.475Z,8.60
2019-03-03T15:50:35.141Z,7.23
2019-03-03T15:53:04.487Z,7.87
2019-03-03T16:03:40.476Z,9.90
2019-03-03T16:06:09.739Z,5.23
2019-03-03T16:08:39.349Z,10.57
2019-03-03T16:11:09.493Z,10.13
2019-03-03T16:13:38.720Z,8.40
2019-03-03T16:18:44.161Z,8.07
2019-03-03T16:21:13.450Z,11.77
2019-03-03T16:23:42.995Z,7.83
2019-03-03T16:26:12.253Z,9.27
2019-03-03T16:28:41.510Z,11.63
2019-03-03T16:31:11.118Z,12.33
2019-03-03T16:33:40.424Z,9.50
2019-03-03T16:36:09.997Z,10.17
2019-03-03T16:38:39.229Z,7.07
2019-03-03T16:41:08.530Z,7.60
2019-03-03T16:43:37.816Z,7.17
2019-03-03T16:46:07.475Z,10.73
2019-03-03T16:48:36.727Z,11.27
2019-03-03T16:53:41.925Z,9.73
2019-03-03T16:56:31.028Z,8.60
2019-03-03T16:59:00.646Z,6.97
2019-03-03T17:01:30.218Z,9.47
2019-03-03T17:04:00.684Z,8.47
2019-03-03T17:06:30.287Z,12.57
2019-03-03T17:08:59.633Z,12.80
2019-03-03T17:11:29.161Z,13.80
2019-03-03T17:13:58.730Z,7.50
2019-03-03T17:16:28.054Z,10.90
2019-03-03T17:18:57.252Z,7.83
2019-03-03T17:21:26.782Z,10.73
2019-03-03T17:23:56.005Z,7.77
2019-03-03T17:26:25.322Z,10.57
2019-03-03T17:28:54.536Z,7.87
2019-03-03T17:31:24.138Z,5.83
2019-03-03T17:33:53.736Z,7.83
2019-03-03T17:36:22.995Z,10.23
2019-03-03T17:38:52.225Z,7.13
2019-03-03T17:41:21.591Z,10.70
2019-03-03T17:43:50.974Z,9.20
2019-03-03T17:46:20.225Z,9.40
2019-03-03T17:49:27.494Z,8.47
2019-03-03T17:51:56.790Z,12.70
2019-03-03T17:54:26.312Z,9.53
2019-03-03T17:56:55.938Z,11.67
2019-03-03T17:59:25.261Z,9.60
2019-03-03T18:02:13.572Z,7.93
2019-03-03T18:04:42.766Z,8.40
2019-03-03T18:07:12.300Z,8.83
2019-03-03T18:09:41.538Z,10.43
2019-03-03T18:12:11.529Z,6.53
2019-03-03T18:14:41.075Z,10.10
2019-03-03T18:17:10.365Z,10.03
2019-03-03T18:19:40.286Z,9.67
2019-03-03T18:22:09.611Z,11.33
2019-03-03T18:24:39.552Z,7.93
2019-03-03T18:27:09.376Z,9.70
2019-03-03T18:29:38.578Z,9.13
2019-03-03T18:32:07.946Z,11.73
2019-03-03T18:34:37.156Z,5.97
2019-03-03T18:37:25.518Z,7.73
2019-03-03T18:39:55.061Z,8.87
2019-03-03T18:42:24.701Z,6.57
2019-03-03T18:44:53.953Z,10.97
2019-03-03T18:47:23.511Z,7.40
2019-03-03T18:49:53.050Z,13.50
2019-03-03T18:52:22.904Z,11.33
2019-03-03T18:54:52.384Z,8.37
2019-03-03T18:57:21.673Z,8.70
2019-03-03T18:59:51.352Z,6.67
2019-03-03T19:02:39.689Z,9.13
2019-03-03T19:05:09.382Z,8.93
2019-03-03T19:07:38.629Z,9.20
2019-03-03T19:10:10.362Z,8.37
2019-03-03T19:12:39.682Z,9.70
2019-03-03T19:15:11.289Z,7.77
2019-03-03T19:17:41.326Z,9.80
2019-03-03T19:20:11.317Z,8.70
2019-03-03T19:26:08.531Z,8.27
2019-03-03T19:28:38.154Z,9.77
2019-03-03T19:31:07.388Z,8.77
2019-03-03T19:33:43.481Z,6.53
2019-03-03T19:36:12.718Z,6.77
2019-03-03T19:38:42.522Z,11.67
2019-03-03T19:41:11.723Z,6.00
2019-03-03T19:43:40.926Z,6.47
2019-03-03T19:46:10.335Z,6.30
2019-03-03T19:48:39.683Z,7.10
2019-03-03T19:51:08.932Z,6.20
2019-03-03T19:53:38.174Z,6.63
2019-03-03T19:56:07.833Z,7.10
2019-03-03T19:58:37.065Z,4.73
2019-03-03T20:01:45.678Z,6.67
2019-03-03T20:04:15.528Z,4.67
2019-03-03T20:06:45.036Z,4.63
2019-03-03T20:12:09.633Z,6.30
2019-03-03T20:14:38.894Z,3.73
2019-03-03T20:17:08.075Z,4.47
2019-03-03T20:19:37.466Z,5.40
2019-03-03T20:22:06.776Z,7.23
2019-03-03T20:24:36.333Z,3.80
2019-03-03T20:27:05.981Z,3.50
2019-03-03T20:29:36.041Z,3.30
2019-03-03T20:32:05.745Z,3.93
2019-03-03T20:34:34.961Z,4.70
2019-03-03T20:37:05.235Z,3.27
2019-03-03T20:39:34.464Z,3.20
2019-03-03T20:42:04.345Z,5.67
2019-03-03T20:44:34.029Z,6.50
2019-03-03T20:47:03.586Z,5.03
2019-03-03T20:49:33.744Z,3.80
2019-03-03T20:52:15.310Z,6.07
2019-03-03T20:54:44.608Z,4.23
2019-03-03T20:57:33.265Z,2.73
2019-03-03T21:00:03.873Z,4.23
2019-03-03T21:02:33.699Z,3.80
2019-03-03T21:05:03.049Z,2.67
2019-03-03T21:07:32.296Z,3.37
2019-03-03T21:10:01.794Z,5.43
2019-03-03T21:12:31.080Z,4.13
2019-03-03T21:15:00.326Z,3.07
2019-03-03T21:17:30.642Z,4.07
2019-03-03T21:19:59.875Z,3.83
2019-03-03T21:22:29.263Z,5.10
2019-03-03T21:24:58.474Z,3.47
2019-03-03T21:27:27.697Z,3.97
2019-03-03T21:29:56.983Z,5.73
2019-03-03T21:32:26.350Z,4.70
2019-03-03T21:34:55.760Z,3.20
2019-03-03T21:37:25.523Z,2.90
2019-03-03T21:39:54.724Z,3.60
2019-03-03T21:42:24.003Z,4.07
2019-03-03T21:44:53.335Z,4.27
2019-03-03T21:47:22.593Z,3.10
2019-03-03T21:49:52.109Z,6.70
2019-03-03T21:52:27.414Z,5.07
2019-03-03T21:54:56.921Z,5.07
2019-03-03T21:57:26.219Z,5.17
2019-03-03T21:59:55.457Z,6.93
2019-03-03T22:02:24.762Z,4.60
2019-03-03T22:04:53.995Z,3.97
2019-03-03T22:07:23.656Z,5.23
2019-03-03T22:09:52.853Z,3.63
2019-03-03T22:12:22.486Z,4.57
2019-03-03T22:14:51.807Z,3.77
2019-03-03T22:17:21.059Z,5.47
2019-03-03T22:19:50.551Z,5.60
2019-03-03T22:22:20.107Z,4.47
2019-03-03T22:24:49.313Z,5.10
2019-03-03T22:27:18.607Z,3.93
2019-03-03T22:29:47.827Z,3.07
2019-03-03T22:32:17.372Z,4.47
2019-03-03T22:34:46.583Z,4.13
2019-03-03T22:37:15.803Z,5.27
2019-03-03T22:39:45.119Z,5.43
2019-03-03T22:42:14.321Z,6.07
2019-03-03T22:44:43.676Z,5.37
2019-03-03T22:47:13.240Z,4.37
2019-03-03T22:49:42.788Z,5.27
2019-03-03T22:52:31.454Z,6.03
2019-03-03T22:55:00.785Z,4.97
2019-03-03T22:57:30.288Z,5.87
2019-03-03T22:59:59.823Z,5.47
2019-03-03T23:02:29.039Z,5.90
2019-03-03T23:05:06.156Z,4.90
2019-03-03T23:08:13.576Z,5.90
2019-03-03T23:11:20.844Z,4.70
2019-03-03T23:14:12.397Z,4.80
2019-03-03T23:17:08.627Z,4.77
2019-03-03T23:19:59.769Z,5.83
2019-03-03T23:23:07.295Z,5.53
2019-03-03T23:25:55.592Z,4.73
2019-03-03T23:31:20.197Z,6.20
2019-03-03T23:33:49.699Z,5.17
2019-03-03T23:36:18.937Z,5.30
2019-03-03T23:38:48.144Z,5.83
2019-03-03T23:41:17.646Z,5.00
2019-03-03T23:43:46.882Z,5.90
2019-03-03T23:46:16.188Z,4.77
2019-03-03T23:48:45.702Z,6.83
2019-03-03T23:51:15.247Z,6.63
2019-03-03T23:53:44.884Z,3.40
2019-03-03T23:56:14.979Z,5.37
2019-03-03T23:58:44.456Z,4.63
